createdAt,value
2022-08-07T00:00:02.927Z,100
2022-08-07T00:00:59.442Z,100
2022-08-07T00:02:35.712Z,100
2022-08-07T00:02:56.428Z,100
2022-08-07T00:03:58.618Z,100
2022-08-07T00:04:57.614Z,100
2022-08-07T00:05:56.487Z,100
2022-08-07T00:07:01.316Z,100
2022-08-07T00:08:00.393Z,100
2022-08-07T00:08:57.630Z,100
2022-08-07T00:10:19.603Z,100
2022-08-07T00:10:59.015Z,100
2022-08-07T00:11:59.333Z,100
2022-08-07T00:13:01.680Z,100
2022-08-07T00:13:56.179Z,100
2022-08-07T00:14:56.198Z,100
2022-08-07T00:15:56.169Z,100
2022-08-07T00:16:56.182Z,100
2022-08-07T00:17:56.184Z,100
2022-08-07T00:18:56.177Z,100
2022-08-07T00:20:03.571Z,100
2022-08-07T00:20:57.445Z,100
2022-08-07T00:22:01.854Z,100
2022-08-07T00:22:56.162Z,100
2022-08-07T00:23:59.202Z,100
2022-08-07T00:24:56.206Z,100
2022-08-07T00:26:07.029Z,100
2022-08-07T00:27:06.618Z,100
2022-08-07T00:27:59.177Z,100
2022-08-07T00:28:59.168Z,100
2022-08-07T00:29:57.541Z,100
2022-08-07T00:30:57.672Z,100
2022-08-07T00:31:56.400Z,100
2022-08-07T00:32:56.483Z,100
2022-08-07T00:33:57.583Z,100
2022-08-07T00:34:56.547Z,100
2022-08-07T00:35:57.619Z,100
2022-08-07T00:36:56.159Z,100
2022-08-07T00:37:57.815Z,100
2022-08-07T00:38:56.265Z,100
2022-08-07T00:39:57.785Z,100
2022-08-07T00:40:56.198Z,100
2022-08-07T00:42:05.121Z,100
2022-08-07T00:42:56.895Z,100
2022-08-07T00:44:02.911Z,100
2022-08-07T00:44:56.306Z,100
2022-08-07T00:45:56.344Z,100
2022-08-07T00:46:58.369Z,100
2022-08-07T00:48:08.669Z,100
2022-08-07T00:48:56.464Z,100
2022-08-07T00:50:17.492Z,100
2022-08-07T00:50:57.706Z,100
2022-08-07T00:51:59.867Z,100
2022-08-07T00:52:56.444Z,100
2022-08-07T00:53:57.849Z,100
2022-08-07T00:54:56.281Z,100
2022-08-07T00:56:03.932Z,100
2022-08-07T00:56:56.320Z,100
2022-08-07T00:57:58.033Z,100
2022-08-07T00:58:57.749Z,100
2022-08-07T00:59:56.416Z,100
2022-08-07T01:00:56.384Z,100
2022-08-07T01:01:59.605Z,100
2022-08-07T01:02:56.438Z,100
2022-08-07T01:04:00.008Z,100
2022-08-07T01:05:00.508Z,100
2022-08-07T01:05:57.259Z,100
2022-08-07T01:06:56.338Z,100
2022-08-07T01:07:57.205Z,100
2022-08-07T01:09:02.932Z,100
2022-08-07T01:10:05.404Z,100
2022-08-07T01:11:23.678Z,100
2022-08-07T01:12:05.500Z,100
2022-08-07T01:12:56.184Z,100
2022-08-07T01:13:57.175Z,100
2022-08-07T01:15:01.368Z,100
2022-08-07T01:16:05.337Z,100
2022-08-07T01:16:56.198Z,100
2022-08-07T01:17:56.178Z,100
2022-08-07T01:18:56.177Z,100
2022-08-07T01:19:56.163Z,100
2022-08-07T01:21:00.188Z,100
2022-08-07T01:21:57.179Z,100
2022-08-07T01:23:12.126Z,100
2022-08-07T01:23:56.192Z,100
2022-08-07T01:24:57.173Z,100
2022-08-07T01:25:59.192Z,100
2022-08-07T01:26:56.183Z,100
2022-08-07T01:27:56.176Z,100
2022-08-07T01:28:56.170Z,100
2022-08-07T01:29:56.167Z,100
2022-08-07T01:30:57.186Z,100
2022-08-07T01:31:59.597Z,100
2022-08-07T01:32:56.181Z,100
2022-08-07T01:33:59.186Z,100
2022-08-07T01:34:56.366Z,100
2022-08-07T01:36:05.861Z,100
2022-08-07T01:36:59.267Z,100
2022-08-07T01:37:56.186Z,100
2022-08-07T01:38:56.186Z,100
2022-08-07T01:39:59.377Z,100
2022-08-07T01:40:56.179Z,100
2022-08-07T01:42:07.788Z,100
2022-08-07T01:43:00.218Z,100
2022-08-07T01:43:56.169Z,100
2022-08-07T01:44:56.204Z,100
2022-08-07T01:45:59.176Z,100
2022-08-07T01:46:56.296Z,100
2022-08-07T01:48:17.045Z,100
2022-08-07T01:48:56.170Z,100
2022-08-07T01:49:56.181Z,100
2022-08-07T01:51:00.215Z,100
2022-08-07T01:52:04.716Z,100
2022-08-07T01:52:56.173Z,100
2022-08-07T01:54:09.781Z,100
2022-08-07T01:54:56.192Z,100
2022-08-07T01:55:56.171Z,100
2022-08-07T01:56:58.341Z,100
2022-08-07T01:58:06.997Z,100
2022-08-07T01:58:59.277Z,100
2022-08-07T01:59:56.186Z,100
2022-08-07T02:01:10.453Z,100
2022-08-07T02:02:04.095Z,100
2022-08-07T02:03:11.500Z,100
2022-08-07T02:03:56.208Z,100
2022-08-07T02:04:59.181Z,100
2022-08-07T02:06:02.187Z,100
2022-08-07T02:06:56.174Z,100
2022-08-07T02:07:56.181Z,100
2022-08-07T02:08:56.180Z,100
2022-08-07T02:09:59.184Z,100
2022-08-07T02:11:00.200Z,100
2022-08-07T02:12:04.367Z,100
2022-08-07T02:12:56.189Z,100
2022-08-07T02:14:02.409Z,100
2022-08-07T02:14:57.184Z,100
2022-08-07T02:15:56.174Z,100
2022-08-07T02:16:58.186Z,100
2022-08-07T02:18:00.202Z,100
2022-08-07T02:18:56.280Z,100
2022-08-07T02:20:05.980Z,100
2022-08-07T02:20:59.175Z,100
2022-08-07T02:21:59.162Z,100
2022-08-07T02:22:57.222Z,100
2022-08-07T02:23:57.180Z,100
2022-08-07T02:24:56.164Z,100
2022-08-07T02:26:11.202Z,100
2022-08-07T02:27:00.083Z,100
2022-08-07T02:27:57.623Z,100
2022-08-07T02:28:57.167Z,100
2022-08-07T02:29:56.447Z,100
2022-08-07T02:30:56.584Z,100
2022-08-07T02:31:56.204Z,100
2022-08-07T02:33:08.993Z,100
2022-08-07T02:34:03.393Z,100
2022-08-07T02:35:00.788Z,100
2022-08-07T02:36:27.594Z,100
2022-08-07T02:36:56.176Z,100
2022-08-07T02:37:57.177Z,100
2022-08-07T02:38:59.471Z,100
2022-08-07T02:40:12.199Z,100
2022-08-07T02:40:57.312Z,100
2022-08-07T02:41:57.178Z,100
2022-08-07T02:42:57.185Z,100
2022-08-07T02:43:59.224Z,100
2022-08-07T02:44:59.219Z,100
2022-08-07T02:46:02.824Z,100
2022-08-07T02:46:57.185Z,100
2022-08-07T02:47:59.205Z,100
2022-08-07T02:48:57.178Z,100
2022-08-07T02:50:02.633Z,100
2022-08-07T02:50:57.191Z,100
2022-08-07T02:51:57.187Z,100
2022-08-07T02:53:03.345Z,100
2022-08-07T02:53:57.179Z,100
2022-08-07T02:54:56.232Z,100
2022-08-07T02:56:05.248Z,100
2022-08-07T02:56:56.172Z,100
2022-08-07T02:57:56.170Z,100
2022-08-07T02:58:57.312Z,100
2022-08-07T03:00:04.840Z,100
2022-08-07T03:00:59.384Z,100
2022-08-07T03:02:01.199Z,100
2022-08-07T03:02:59.193Z,100
2022-08-07T03:04:03.174Z,100
2022-08-07T03:04:56.226Z,100
2022-08-07T03:05:56.197Z,100
2022-08-07T03:06:56.260Z,100
2022-08-07T03:08:05.508Z,100
2022-08-07T03:08:59.494Z,100
2022-08-07T03:09:56.207Z,100
2022-08-07T03:10:57.648Z,100
2022-08-07T03:12:03.378Z,100
2022-08-07T03:12:57.311Z,100
2022-08-07T03:14:03.371Z,100
2022-08-07T03:14:56.327Z,100
2022-08-07T03:15:59.363Z,100
2022-08-07T03:16:56.171Z,100
2022-08-07T03:17:57.738Z,100
2022-08-07T03:18:56.682Z,100
2022-08-07T03:19:57.835Z,100
2022-08-07T03:20:55.983Z,100
2022-08-07T03:21:56.340Z,100
2022-08-07T03:22:59.889Z,100
2022-08-07T03:24:18.603Z,100
2022-08-07T03:24:56.175Z,100
2022-08-07T03:26:00.538Z,100
2022-08-07T03:27:01.091Z,100
2022-08-07T03:28:09.355Z,100
2022-08-07T03:28:56.296Z,100
2022-08-07T03:29:56.322Z,100
2022-08-07T03:30:56.187Z,100
2022-08-07T03:31:57.178Z,100
2022-08-07T03:33:01.132Z,100
2022-08-07T03:33:57.176Z,100
2022-08-07T03:35:17.313Z,100
2022-08-07T03:35:57.191Z,100
2022-08-07T03:36:59.155Z,100
2022-08-07T03:37:57.270Z,100
2022-08-07T03:38:57.842Z,100
2022-08-07T03:40:15.109Z,100
2022-08-07T03:40:59.337Z,100
2022-08-07T03:42:00.779Z,100
2022-08-07T03:42:57.181Z,100
2022-08-07T03:43:57.806Z,100
2022-08-07T03:44:58.714Z,100
2022-08-07T03:45:56.169Z,100
2022-08-07T03:47:10.621Z,100
2022-08-07T03:47:59.248Z,100
2022-08-07T03:49:03.398Z,100
2022-08-07T03:49:56.228Z,100
2022-08-07T03:50:59.635Z,100
2022-08-07T03:52:01.375Z,100
2022-08-07T03:52:56.483Z,100
2022-08-07T03:54:32.710Z,100
2022-08-07T03:55:07.219Z,100
2022-08-07T03:56:04.223Z,100
2022-08-07T03:57:03.854Z,100
2022-08-07T03:58:09.170Z,100
2022-08-07T03:59:07.545Z,100
2022-08-07T04:00:03.007Z,100
2022-08-07T04:01:00.995Z,100
2022-08-07T04:01:57.852Z,100
2022-08-07T04:02:57.822Z,100
2022-08-07T04:03:57.857Z,100
2022-08-07T04:04:59.420Z,100
2022-08-07T04:05:59.946Z,100
2022-08-07T04:06:56.674Z,100
2022-08-07T04:07:56.942Z,100
2022-08-07T04:08:57.799Z,100
2022-08-07T04:09:56.495Z,100
2022-08-07T04:12:21.060Z,100
2022-08-07T04:12:21.708Z,100
2022-08-07T04:12:56.983Z,100
2022-08-07T04:14:09.818Z,100
2022-08-07T04:15:01.226Z,100
2022-08-07T04:15:56.637Z,100
2022-08-07T04:17:03.089Z,100
2022-08-07T04:18:04.691Z,100
2022-08-07T04:19:04.466Z,100
2022-08-07T04:19:58.658Z,100
2022-08-07T04:20:58.363Z,100
2022-08-07T04:22:05.503Z,100
2022-08-07T04:23:06.172Z,100
2022-08-07T04:24:07.690Z,100
2022-08-07T04:25:01.293Z,100
2022-08-07T04:25:59.194Z,100
2022-08-07T04:26:57.192Z,100
2022-08-07T04:28:02.357Z,100
2022-08-07T04:28:56.177Z,100
2022-08-07T04:30:01.763Z,100
2022-08-07T04:30:59.193Z,100
2022-08-07T04:32:09.927Z,100
2022-08-07T04:32:59.207Z,100
2022-08-07T04:33:59.189Z,100
2022-08-07T04:34:56.239Z,100
2022-08-07T04:35:59.187Z,100
2022-08-07T04:36:56.196Z,100
2022-08-07T04:38:03.973Z,100
2022-08-07T04:38:56.183Z,100
2022-08-07T04:39:59.311Z,100
2022-08-07T04:40:59.175Z,100
2022-08-07T04:41:59.176Z,100
2022-08-07T04:43:03.249Z,100
2022-08-07T04:44:11.393Z,100
2022-08-07T04:45:03.123Z,100
2022-08-07T04:46:02.321Z,100
2022-08-07T04:47:05.096Z,100
2022-08-07T04:48:05.692Z,100
2022-08-07T04:48:57.314Z,100
2022-08-07T04:50:04.334Z,100
2022-08-07T04:50:56.184Z,100
2022-08-07T04:51:57.182Z,100
2022-08-07T04:52:56.198Z,100
2022-08-07T04:54:05.984Z,100
2022-08-07T04:54:59.242Z,100
2022-08-07T04:58:08.092Z,100
2022-08-07T04:58:08.869Z,100
2022-08-07T04:58:09.315Z,100
2022-08-07T04:59:18.767Z,100
2022-08-07T05:00:08.328Z,100
2022-08-07T05:00:56.207Z,100
2022-08-07T05:01:56.193Z,100
2022-08-07T05:02:59.185Z,100
2022-08-07T05:04:08.117Z,100
2022-08-07T05:05:00.199Z,100
2022-08-07T05:06:02.199Z,100
2022-08-07T05:06:56.172Z,100
2022-08-07T05:07:57.187Z,100
2022-08-07T05:09:02.565Z,100
2022-08-07T05:09:59.225Z,100
2022-08-07T05:11:02.498Z,100
2022-08-07T05:12:02.484Z,100
2022-08-07T05:13:10.231Z,100
2022-08-07T05:14:45.457Z,100
2022-08-07T05:15:03.353Z,100
2022-08-07T05:15:56.185Z,100
2022-08-07T05:16:56.184Z,100
2022-08-07T05:17:57.357Z,100
2022-08-07T05:18:56.188Z,100
2022-08-07T05:19:56.279Z,100
2022-08-07T05:20:56.199Z,100
2022-08-07T05:22:04.653Z,100
2022-08-07T05:22:56.173Z,100
2022-08-07T05:23:57.186Z,100
2022-08-07T05:24:56.229Z,100
2022-08-07T05:26:11.330Z,100
2022-08-07T05:26:56.182Z,100
2022-08-07T05:28:16.643Z,100
2022-08-07T05:28:57.185Z,100
2022-08-07T05:29:57.219Z,100
2022-08-07T05:30:57.176Z,100
2022-08-07T05:31:56.379Z,100
2022-08-07T05:32:59.223Z,100
2022-08-07T05:34:05.048Z,100
2022-08-07T05:34:56.201Z,100
2022-08-07T05:35:57.180Z,100
2022-08-07T05:36:56.160Z,100
2022-08-07T05:38:08.269Z,100
2022-08-07T05:40:06.127Z,100
2022-08-07T05:40:07.219Z,100
2022-08-07T05:40:58.358Z,100
2022-08-07T05:42:00.839Z,100
2022-08-07T05:42:57.436Z,100
2022-08-07T05:44:08.979Z,100
2022-08-07T05:45:04.658Z,100
2022-08-07T05:45:59.301Z,100
2022-08-07T05:46:56.472Z,100
2022-08-07T05:48:03.148Z,100
2022-08-07T05:49:00.189Z,100
2022-08-07T05:49:56.219Z,100
2022-08-07T05:50:56.179Z,100
2022-08-07T05:51:56.186Z,100
2022-08-07T05:52:57.191Z,100
2022-08-07T05:54:09.016Z,100
2022-08-07T05:55:06.948Z,100
2022-08-07T05:56:02.597Z,100
2022-08-07T05:56:57.180Z,100
2022-08-07T05:57:56.191Z,100
2022-08-07T05:58:59.180Z,100
2022-08-07T05:59:59.208Z,100
2022-08-07T06:00:56.196Z,100
2022-08-07T06:01:57.436Z,100
2022-08-07T06:02:56.255Z,100
2022-08-07T06:04:02.492Z,100
2022-08-07T06:04:56.202Z,100
2022-08-07T06:05:59.208Z,100
2022-08-07T06:07:03.588Z,100
2022-08-07T06:08:09.370Z,100
2022-08-07T06:08:57.183Z,100
2022-08-07T06:10:04.885Z,100
2022-08-07T06:10:56.173Z,100
2022-08-07T06:11:57.192Z,100
2022-08-07T06:12:56.216Z,100
2022-08-07T06:14:11.052Z,100
2022-08-07T06:15:05.494Z,100
2022-08-07T06:15:59.194Z,100
2022-08-07T06:17:00.177Z,100
2022-08-07T06:17:59.182Z,100
2022-08-07T06:18:57.178Z,100
2022-08-07T06:20:03.520Z,100
2022-08-07T06:22:12.069Z,100
2022-08-07T06:22:12.632Z,98.55
2022-08-07T06:23:25.580Z,95.45
2022-08-07T06:24:39.119Z,93.14
2022-08-07T06:25:02.908Z,92.04
2022-08-07T06:26:00.227Z,91.12
2022-08-07T06:26:56.206Z,84.37
2022-08-07T06:28:05.393Z,82.11
2022-08-07T06:28:56.253Z,79.81
2022-08-07T06:30:00.533Z,79.56
2022-08-07T06:30:58.082Z,78.87
2022-08-07T06:31:57.016Z,76.81
2022-08-07T06:32:56.593Z,72.63
2022-08-07T06:33:57.909Z,72.99
2022-08-07T06:34:57.202Z,71.85
2022-08-07T06:36:07.151Z,69.42
2022-08-07T06:36:56.834Z,67.35
2022-08-07T06:37:56.790Z,66.33
2022-08-07T06:40:12.702Z,67.13
2022-08-07T06:40:13.988Z,66.15
2022-08-07T06:40:56.225Z,68.12
2022-08-07T06:42:01.396Z,65.71
2022-08-07T06:42:56.170Z,64.39
2022-08-07T06:44:06.821Z,64.75
2022-08-07T06:44:56.532Z,64.45
2022-08-07T06:46:02.616Z,63.29
2022-08-07T06:47:10.769Z,61.6
2022-08-07T06:48:01.188Z,61.65
2022-08-07T06:48:56.173Z,62.21
2022-08-07T06:50:00.476Z,63.38
2022-08-07T06:50:56.523Z,64.48
2022-08-07T06:52:02.980Z,64.62
2022-08-07T06:52:57.411Z,63.91
2022-08-07T06:54:12.478Z,63.51
2022-08-07T06:55:30.754Z,64.02
2022-08-07T06:56:02.233Z,63.25
2022-08-07T06:56:58.387Z,62.77
2022-08-07T06:58:00.403Z,62.68
2022-08-07T07:00:10.619Z,62.77
2022-08-07T07:00:15.197Z,62.88
2022-08-07T07:00:56.183Z,61.2
2022-08-07T07:01:59.503Z,60.72
2022-08-07T07:03:08.565Z,60.82
2022-08-07T07:04:08.342Z,61.24
2022-08-07T07:04:57.200Z,59.49
2022-08-07T07:06:06.149Z,61.4
2022-08-07T07:07:02.520Z,60.88
2022-08-07T07:08:04.124Z,58.56
2022-08-07T07:09:00.655Z,58.46
2022-08-07T07:09:57.203Z,59.54
2022-08-07T07:10:58.931Z,60.31
2022-08-07T07:12:07.257Z,60.37
2022-08-07T07:12:56.276Z,60.4
2022-08-07T07:14:02.918Z,61.21
2022-08-07T07:14:56.270Z,61.4
2022-08-07T07:15:59.244Z,62.87
2022-08-07T07:16:56.311Z,61.39
2022-08-07T07:17:59.227Z,59.75
2022-08-07T07:18:56.155Z,58.73
2022-08-07T07:19:59.834Z,58.99
2022-08-07T07:20:58.174Z,58.89
2022-08-07T07:22:04.488Z,59.33
2022-08-07T07:24:05.284Z,60.65
2022-08-07T07:24:05.889Z,59.7
2022-08-07T07:25:03.224Z,61.64
2022-08-07T07:26:33.788Z,63.51
2022-08-07T07:26:59.242Z,63.79
2022-08-07T07:28:02.267Z,63.98
2022-08-07T07:29:38.735Z,64.88
2022-08-07T07:30:09.503Z,64.81
2022-08-07T07:30:56.412Z,64.98
2022-08-07T07:31:56.577Z,63.82
2022-08-07T07:32:56.326Z,63.03
2022-08-07T07:33:59.652Z,62.99
2022-08-07T07:34:56.170Z,62.69
2022-08-07T07:36:05.126Z,62.61
2022-08-07T07:36:56.181Z,63.83
2022-08-07T07:38:04.756Z,63.63
2022-08-07T07:38:56.195Z,63.09
2022-08-07T07:39:57.242Z,62.43
2022-08-07T07:41:02.707Z,62.29
2022-08-07T07:42:08.994Z,61.63
2022-08-07T07:42:57.199Z,61.18
2022-08-07T07:44:14.064Z,61.34
2022-08-07T07:44:56.200Z,60.75
2022-08-07T07:46:38.651Z,60.37
2022-08-07T07:47:12.025Z,60.15
2022-08-07T07:47:56.369Z,59.5
2022-08-07T07:49:09.071Z,58.52
2022-08-07T07:50:31.698Z,57.29
2022-08-07T07:50:57.258Z,56.83
2022-08-07T07:52:02.307Z,56.53
2022-08-07T07:52:57.199Z,56.55
2022-08-07T07:53:59.297Z,56.28
2022-08-07T07:54:56.329Z,56.79
2022-08-07T07:56:02.194Z,56.8
2022-08-07T07:56:59.332Z,57.12
2022-08-07T07:57:59.290Z,57.12
2022-08-07T07:58:56.165Z,57.4
2022-08-07T07:59:56.183Z,56.99
2022-08-07T08:01:00.180Z,56.5
2022-08-07T08:02:05.014Z,56.18
2022-08-07T08:03:05.975Z,56.99
2022-08-07T08:04:06.775Z,55.23
2022-08-07T08:04:59.318Z,53.73
2022-08-07T08:05:57.257Z,52.56
2022-08-07T08:06:57.185Z,54.38
2022-08-07T08:08:02.507Z,52.68
2022-08-07T08:09:00.276Z,53.08
2022-08-07T08:10:05.222Z,53.13
2022-08-07T08:10:59.184Z,54.24
2022-08-07T08:12:03.795Z,52.52
2022-08-07T08:13:02.868Z,54.89
2022-08-07T08:13:57.172Z,52.88
2022-08-07T08:14:57.197Z,50.16
2022-08-07T08:16:02.182Z,49.66
2022-08-07T08:16:56.171Z,48.64
2022-08-07T08:18:17.154Z,49.59
2022-08-07T08:18:56.178Z,51.02
2022-08-07T08:20:16.734Z,51.94
2022-08-07T08:20:57.186Z,52.42
2022-08-07T08:22:02.962Z,53.6
2022-08-07T08:22:59.215Z,52.77
2022-08-07T08:23:56.185Z,50.19
2022-08-07T08:25:04.963Z,49.22
2022-08-07T08:26:06.602Z,49.01
2022-08-07T08:26:59.175Z,48.7
2022-08-07T08:28:03.792Z,50.19
2022-08-07T08:28:56.194Z,49.32
2022-08-07T08:29:57.187Z,46.86
2022-08-07T08:30:57.189Z,46.02
2022-08-07T08:32:17.629Z,48.04
2022-08-07T08:32:57.191Z,46.02
2022-08-07T08:33:59.185Z,45.84
2022-08-07T08:34:56.182Z,44.79
2022-08-07T08:35:56.237Z,45.75
2022-08-07T08:36:59.178Z,46.49
2022-08-07T08:38:03.267Z,46.91
2022-08-07T08:38:56.444Z,47.27
2022-08-07T08:40:00.286Z,48.07
2022-08-07T08:40:57.230Z,46.91
2022-08-07T08:42:00.200Z,45.53
2022-08-07T08:42:56.186Z,44.95
2022-08-07T08:44:00.174Z,44.46
2022-08-07T08:44:56.194Z,45.21
2022-08-07T08:46:02.216Z,45.21
2022-08-07T08:46:56.366Z,43.69
2022-08-07T08:47:57.160Z,44.67
2022-08-07T08:48:56.383Z,44.31
2022-08-07T08:50:03.025Z,43.66
2022-08-07T08:50:56.531Z,43.83
2022-08-07T08:52:13.628Z,46.86
2022-08-07T08:52:56.408Z,45.07
2022-08-07T08:53:57.426Z,45.56
2022-08-07T08:54:56.196Z,45.6
2022-08-07T08:56:00.272Z,45.53
2022-08-07T08:56:56.294Z,45.7
2022-08-07T08:57:56.727Z,45.5
2022-08-07T08:58:56.183Z,45.58
2022-08-07T09:00:00.472Z,43.33
2022-08-07T09:01:02.361Z,43.13
2022-08-07T09:02:00.422Z,42.58
2022-08-07T09:03:03.897Z,42
2022-08-07T09:03:57.177Z,42.57
2022-08-07T09:04:56.177Z,43.08
2022-08-07T09:05:57.186Z,42.36
2022-08-07T09:06:57.174Z,42.54
2022-08-07T09:07:59.185Z,42.4
2022-08-07T09:08:56.194Z,42.56
2022-08-07T09:09:59.495Z,41.94
2022-08-07T09:10:56.201Z,42.02
2022-08-07T09:12:20.364Z,41.61
2022-08-07T09:12:57.380Z,39.73
2022-08-07T09:13:59.199Z,36.3
2022-08-07T09:14:59.693Z,36.49
2022-08-07T09:16:20.926Z,38.26
2022-08-07T09:16:56.185Z,39.46
2022-08-07T09:18:06.038Z,39.86
2022-08-07T09:18:59.177Z,39.86
2022-08-07T09:19:57.211Z,39.42
2022-08-07T09:21:02.191Z,37.35
2022-08-07T09:22:23.324Z,37.63
2022-08-07T09:24:29.718Z,38.41
2022-08-07T09:24:34.404Z,38.75
2022-08-07T09:25:06.152Z,40.52
2022-08-07T09:25:56.213Z,38.18
2022-08-07T09:27:04.560Z,37.14
2022-08-07T09:28:03.071Z,37.99
2022-08-07T09:30:02.963Z,38.55
2022-08-07T09:30:07.828Z,38.01
2022-08-07T09:30:57.212Z,36.88
2022-08-07T09:31:56.277Z,37.63
2022-08-07T09:32:56.198Z,37.02
2022-08-07T09:33:59.181Z,38.19
2022-08-07T09:34:59.199Z,38.53
2022-08-07T09:36:05.494Z,37.95
2022-08-07T09:36:56.172Z,37.05
2022-08-07T09:38:00.421Z,37.15
2022-08-07T09:38:56.186Z,36.67
2022-08-07T09:40:00.305Z,36.73
2022-08-07T09:40:56.165Z,36.52
2022-08-07T09:42:05.932Z,37.36
2022-08-07T09:43:00.267Z,37.79
2022-08-07T09:44:06.984Z,37.49
2022-08-07T09:46:28.885Z,37.59
2022-08-07T09:46:29.155Z,38.08
2022-08-07T09:47:28.008Z,37.81
2022-08-07T09:48:11.579Z,36.98
2022-08-07T09:50:00.092Z,37.36
2022-08-07T09:50:18.401Z,37.26
2022-08-07T09:51:00.111Z,38.38
2022-08-07T09:52:11.022Z,35.58
2022-08-07T09:52:57.700Z,35.54
2022-08-07T09:54:03.482Z,35.62
2022-08-07T09:54:58.370Z,35.54
2022-08-07T09:56:02.967Z,36.11
2022-08-07T09:56:56.629Z,36.1
2022-08-07T09:57:56.357Z,36.9
2022-08-07T09:58:56.151Z,36.64
2022-08-07T10:00:02.791Z,37.15
2022-08-07T10:00:56.182Z,36.17
2022-08-07T10:01:56.196Z,35.97
2022-08-07T10:02:57.284Z,35.44
2022-08-07T10:04:04.283Z,35.83
2022-08-07T10:05:12.293Z,35.81
2022-08-07T10:06:03.610Z,35.22
2022-08-07T10:06:59.529Z,34.66
2022-08-07T10:08:01.513Z,35.11
2022-08-07T10:08:56.177Z,35.48
2022-08-07T10:10:02.741Z,35.67
2022-08-07T10:11:17.408Z,37.21
2022-08-07T10:12:11.936Z,35.52
2022-08-07T10:12:56.191Z,36.15
2022-08-07T10:14:02.461Z,36.7
2022-08-07T10:14:57.221Z,36.26
2022-08-07T10:15:59.317Z,37.1
2022-08-07T10:16:59.355Z,35.6
2022-08-07T10:18:03.754Z,35.32
2022-08-07T10:18:57.252Z,35.97
2022-08-07T10:19:58.534Z,35.29
2022-08-07T10:20:56.243Z,35.54
2022-08-07T10:22:15.185Z,35.87
2022-08-07T10:22:57.389Z,35.74
2022-08-07T10:24:04.574Z,35.21
2022-08-07T10:25:00.204Z,33.76
2022-08-07T10:25:56.330Z,33.72
2022-08-07T10:26:57.622Z,34.59
2022-08-07T10:27:59.266Z,34.88
2022-08-07T10:28:56.419Z,33.92
2022-08-07T10:29:56.357Z,34.28
2022-08-07T10:30:56.573Z,35.01
2022-08-07T10:31:56.361Z,35.7
2022-08-07T10:33:00.484Z,35.8
2022-08-07T10:34:05.266Z,35.32
2022-08-07T10:34:56.297Z,35.26
2022-08-07T10:36:05.429Z,35.36
2022-08-07T10:36:57.763Z,35.78
2022-08-07T10:38:15.810Z,34.82
2022-08-07T10:38:56.919Z,35.76
2022-08-07T10:40:03.175Z,34.96
2022-08-07T10:40:56.640Z,34.99
2022-08-07T10:42:09.619Z,34.68
2022-08-07T10:42:56.435Z,36.61
2022-08-07T10:44:07.748Z,34.77
2022-08-07T10:44:57.177Z,35.67
2022-08-07T10:45:59.785Z,34.86
2022-08-07T10:46:56.294Z,34.5
2022-08-07T10:48:03.689Z,35.15
2022-08-07T10:48:57.379Z,34.05
2022-08-07T10:49:56.168Z,33.89
2022-08-07T10:50:59.935Z,34.96
2022-08-07T10:52:13.558Z,34.54
2022-08-07T10:52:57.189Z,34.35
2022-08-07T10:54:01.002Z,34.51
2022-08-07T10:55:00.958Z,33.37
2022-08-07T10:55:56.161Z,32.72
2022-08-07T10:56:56.232Z,33.02
2022-08-07T10:57:59.182Z,33.69
2022-08-07T10:59:00.525Z,33.88
2022-08-07T10:59:56.265Z,33.66
2022-08-07T11:01:02.188Z,33.78
2022-08-07T11:02:02.719Z,34.82
2022-08-07T11:03:00.338Z,34.31
2022-08-07T11:04:11.130Z,31.97
2022-08-07T11:04:56.192Z,32.3
2022-08-07T11:05:56.192Z,33.14
2022-08-07T11:06:58.215Z,33.89
2022-08-07T11:08:02.643Z,33.07
2022-08-07T11:08:56.186Z,31.49
2022-08-07T11:10:06.805Z,31.88
2022-08-07T11:11:00.283Z,32.75
2022-08-07T11:12:00.228Z,33.14
2022-08-07T11:13:02.538Z,33.77
2022-08-07T11:14:43.329Z,34.35
2022-08-07T11:15:02.206Z,35.64
2022-08-07T11:15:56.182Z,35.07
2022-08-07T11:17:01.430Z,34.74
2022-08-07T11:17:56.175Z,35.22
2022-08-07T11:18:56.227Z,34.31
2022-08-07T11:19:58.190Z,33.83
2022-08-07T11:20:56.189Z,33.45
2022-08-07T11:21:56.436Z,33.31
2022-08-07T11:22:57.294Z,34.3
2022-08-07T11:23:56.182Z,33.33
2022-08-07T11:24:56.180Z,33.35
2022-08-07T11:26:06.135Z,32.81
2022-08-07T11:27:00.514Z,31.82
2022-08-07T11:28:04.264Z,31.64
2022-08-07T11:28:57.190Z,31.48
2022-08-07T11:30:10.273Z,33
2022-08-07T11:30:57.182Z,32.21
2022-08-07T11:31:56.258Z,32.63
2022-08-07T11:32:59.172Z,32.14
2022-08-07T11:34:00.748Z,32.03
2022-08-07T11:34:58.241Z,32.15
2022-08-07T11:36:01.378Z,32.26
2022-08-07T11:37:02.235Z,31.52
2022-08-07T11:38:10.648Z,32.06
2022-08-07T11:38:59.224Z,32.55
2022-08-07T11:40:03.639Z,32.86
2022-08-07T11:41:00.194Z,32.03
2022-08-07T11:42:03.272Z,31.75
2022-08-07T11:42:56.302Z,31.81
2022-08-07T11:44:11.290Z,31.2
2022-08-07T11:44:59.209Z,31.69
2022-08-07T11:45:56.172Z,30.82
2022-08-07T11:46:57.191Z,30.78
2022-08-07T11:48:02.734Z,31.15
2022-08-07T11:49:28.943Z,31.66
2022-08-07T11:50:25.692Z,31.85
2022-08-07T11:50:59.164Z,31.54
2022-08-07T11:51:59.190Z,32.46
2022-08-07T11:52:56.188Z,31.78
2022-08-07T11:54:03.715Z,32.1
2022-08-07T11:54:57.184Z,32.69
2022-08-07T11:56:09.793Z,32.89
2022-08-07T11:56:59.194Z,33.16
2022-08-07T11:58:02.317Z,32.81
2022-08-07T11:58:56.187Z,32.34
2022-08-07T12:00:08.724Z,31.55
2022-08-07T12:01:04.178Z,31.75
2022-08-07T12:02:02.519Z,31.35
2022-08-07T12:02:56.204Z,30.54
2022-08-07T12:03:56.469Z,31.54
2022-08-07T12:04:56.601Z,30.63
2022-08-07T12:05:58.465Z,33.22
2022-08-07T12:07:03.107Z,30.72
2022-08-07T12:08:03.526Z,32.98
2022-08-07T12:08:59.314Z,31.19
2022-08-07T12:09:56.487Z,30.84
2022-08-07T12:11:08.214Z,30.29
2022-08-07T12:12:08.976Z,29.22
2022-08-07T12:12:56.815Z,29.8
2022-08-07T12:13:56.499Z,30.49
2022-08-07T12:15:02.259Z,29.96
2022-08-07T12:16:06.493Z,31.24
2022-08-07T12:16:56.194Z,30.38
2022-08-07T12:18:03.105Z,30.63
2022-08-07T12:19:00.994Z,31.63
2022-08-07T12:20:05.444Z,31.27
2022-08-07T12:20:56.176Z,31.11
2022-08-07T12:22:38.320Z,30.54
2022-08-07T12:22:59.483Z,29.93
2022-08-07T12:24:06.442Z,31.93
2022-08-07T12:25:07.638Z,30.73
2022-08-07T12:26:22.533Z,30.38
2022-08-07T12:26:56.176Z,30.08
2022-08-07T12:28:04.155Z,30.39
2022-08-07T12:28:56.187Z,30.44
2022-08-07T12:29:56.175Z,30.72
2022-08-07T12:30:56.178Z,30.89
2022-08-07T12:32:02.655Z,33.32
2022-08-07T12:32:56.179Z,31.52
2022-08-07T12:34:03.969Z,30.46
2022-08-07T12:34:58.188Z,30.56
2022-08-07T12:36:02.494Z,31.82
2022-08-07T12:36:57.189Z,31.23
2022-08-07T12:38:10.540Z,30.53
2022-08-07T12:38:59.364Z,30.98
2022-08-07T12:39:59.283Z,29.69
2022-08-07T12:40:59.289Z,30.14
2022-08-07T12:41:56.172Z,30.49
2022-08-07T12:42:59.385Z,30.27
2022-08-07T12:44:05.200Z,30.6
2022-08-07T12:44:59.195Z,30.65
2022-08-07T12:45:57.259Z,30.98
2022-08-07T12:46:57.180Z,32.64
2022-08-07T12:47:57.175Z,30.78
2022-08-07T12:48:58.174Z,30.54
2022-08-07T12:50:00.482Z,29.14
2022-08-07T12:50:56.309Z,29.19
2022-08-07T12:52:12.499Z,29.42
2022-08-07T12:52:56.167Z,30.3
2022-08-07T12:54:24.408Z,31.59
2022-08-07T12:55:05.748Z,31.18
2022-08-07T12:56:02.220Z,28.59
2022-08-07T12:57:04.618Z,29.34
2022-08-07T12:58:02.094Z,29.24
2022-08-07T12:59:00.664Z,29.4
2022-08-07T12:59:58.117Z,29.88
2022-08-07T13:01:00.684Z,30.23
2022-08-07T13:01:56.992Z,29.99
2022-08-07T13:02:57.148Z,29.77
2022-08-07T13:04:04.515Z,31.04
2022-08-07T13:05:02.406Z,30.5
2022-08-07T13:06:04.978Z,30.39
2022-08-07T13:07:02.500Z,27.52
2022-08-07T13:08:13.156Z,27.63
2022-08-07T13:08:56.195Z,28.45
2022-08-07T13:10:14.427Z,28.83
2022-08-07T13:10:57.180Z,29.85
2022-08-07T13:12:02.925Z,29.21
2022-08-07T13:13:00.253Z,31.31
2022-08-07T13:13:59.599Z,30.09
2022-08-07T13:15:00.897Z,29.41
2022-08-07T13:16:01.656Z,31.78
2022-08-07T13:16:56.207Z,31.06
2022-08-07T13:18:00.562Z,30.39